sensor_id;sensor_type;location;lat;lon;timestamp;pressure;altitude;pressure_sealevel;temperature;humidity
37634;BME280;32048;49.902;22.508;2023-03-12T00:00:52;97793.78;;;-1.40;100.00
37634;BME280;32048;49.902;22.508;2023-03-12T00:03:32;97803.31;;;-1.44;100.00
37634;BME280;32048;49.902;22.508;2023-03-12T00:06:02;97808.50;;;-1.44;100.00
37634;BME280;32048;49.902;22.508;2023-03-12T00:08:36;97824.00;;;-1.41;100.00
37634;BME280;32048;49.902;22.508;2023-03-12T00:11:11;97817.06;;;-1.39;100.00
37634;BME280;32048;49.902;22.508;2023-03-12T00:13:40;97819.59;;;-1.37;100.00
37634;BME280;32048;49.902;22.508;2023-03-12T00:16:11;97824.75;;;-1.36;100.00
37634;BME280;32048;49.902;22.508;2023-03-12T00:18:39;97817.00;;;-1.37;100.00
37634;BME280;32048;49.902;22.508;2023-03-12T00:21:07;97828.22;;;-1.37;100.00
37634;BME280;32048;49.902;22.508;2023-03-12T00:23:34;97822.25;;;-1.40;100.00
37634;BME280;32048;49.902;22.508;2023-03-12T00:26:04;97826.63;;;-1.42;100.00
37634;BME280;32048;49.902;22.508;2023-03-12T00:28:32;97818.84;;;-1.42;100.00
37634;BME280;32048;49.902;22.508;2023-03-12T00:31:02;97818.94;;;-1.47;100.00
37634;BME280;32048;49.902;22.508;2023-03-12T00:33:29;97823.28;;;-1.49;100.00
37634;BME280;32048;49.902;22.508;2023-03-12T00:35:59;97826.78;;;-1.50;100.00
37634;BME280;32048;49.902;22.508;2023-03-12T00:38:26;97832.75;;;-1.48;100.00
37634;BME280;32048;49.902;22.508;2023-03-12T00:40:53;97827.63;;;-1.50;100.00
37634;BME280;32048;49.902;22.508;2023-03-12T00:43:20;97830.16;;;-1.48;100.00
37634;BME280;32048;49.902;22.508;2023-03-12T00:45:48;97826.72;;;-1.49;100.00
37634;BME280;32048;49.902;22.508;2023-03-12T00:48:15;97821.53;;;-1.49;100.00
37634;BME280;32048;49.902;22.508;2023-03-12T00:50:42;97817.25;;;-1.50;100.00
37634;BME280;32048;49.902;22.508;2023-03-12T00:53:09;97820.75;;;-1.52;100.00
37634;BME280;32048;49.902;22.508;2023-03-12T00:55:36;97831.06;;;-1.49;100.00
37634;BME280;32048;49.902;22.508;2023-03-12T00:58:03;97819.88;;;-1.51;100.00
37634;BME280;32048;49.902;22.508;2023-03-12T01:00:30;97821.63;;;-1.52;100.00
37634;BME280;32048;49.902;22.508;2023-03-12T01:02:57;97834.56;;;-1.52;100.00
37634;BME280;32048;49.902;22.508;2023-03-12T01:05:24;97825.97;;;-1.55;100.00
37634;BME280;32048;49.902;22.508;2023-03-12T01:07:52;97828.63;;;-1.58;100.00
37634;BME280;32048;49.902;22.508;2023-03-12T01:10:20;97835.56;;;-1.59;100.00
37634;BME280;32048;49.902;22.508;2023-03-12T01:12:47;97837.34;;;-1.64;100.00
37634;BME280;32048;49.902;22.508;2023-03-12T01:15:16;97841.66;;;-1.63;100.00
37634;BME280;32048;49.902;22.508;2023-03-12T01:17:43;97836.59;;;-1.69;100.00
37634;BME280;32048;49.902;22.508;2023-03-12T01:20:10;97839.09;;;-1.64;100.00
37634;BME280;32048;49.902;22.508;2023-03-12T01:22:38;97843.34;;;-1.60;100.00
37634;BME280;32048;49.902;22.508;2023-03-12T01:25:06;97839.06;;;-1.61;100.00
37634;BME280;32048;49.902;22.508;2023-03-12T01:27:33;97851.09;;;-1.60;100.00
37634;BME280;32048;49.902;22.508;2023-03-12T01:30:00;97846.78;;;-1.60;100.00
37634;BME280;32048;49.902;22.508;2023-03-12T01:32:27;97846.00;;;-1.63;100.00
37634;BME280;32048;49.902;22.508;2023-03-12T01:34:56;97843.50;;;-1.68;100.00
37634;BME280;32048;49.902;22.508;2023-03-12T01:37:24;97849.50;;;-1.68;100.00
37634;BME280;32048;49.902;22.508;2023-03-12T01:39:51;97853.03;;;-1.72;100.00
37634;BME280;32048;49.902;22.508;2023-03-12T01:42:18;97859.06;;;-1.73;100.00
37634;BME280;32048;49.902;22.508;2023-03-12T01:47:19;97856.47;;;-1.71;100.00
37634;BME280;32048;49.902;22.508;2023-03-12T01:49:47;97856.38;;;-1.65;100.00
37634;BME280;32048;49.902;22.508;2023-03-12T01:52:20;97858.94;;;-1.63;100.00
37634;BME280;32048;49.902;22.508;2023-03-12T01:54:49;97857.19;;;-1.63;100.00
37634;BME280;32048;49.902;22.508;2023-03-12T01:57:22;97867.47;;;-1.58;100.00
37634;BME280;32048;49.902;22.508;2023-03-12T01:59:57;97878.66;;;-1.56;100.00
37634;BME280;32048;49.902;22.508;2023-03-12T02:02:26;97879.50;;;-1.56;100.00
37634;BME280;32048;49.902;22.508;2023-03-12T02:05:08;97883.84;;;-1.56;100.00
37634;BME280;32048;49.902;22.508;2023-03-12T02:07:37;97891.63;;;-1.58;100.00
37634;BME280;32048;49.902;22.508;2023-03-12T02:10:04;97891.69;;;-1.62;100.00
37634;BME280;32048;49.902;22.508;2023-03-12T02:12:32;97892.59;;;-1.65;100.00
37634;BME280;32048;49.902;22.508;2023-03-12T02:14:58;97890.88;;;-1.66;100.00
37634;BME280;32048;49.902;22.508;2023-03-12T02:17:26;97903.06;;;-1.71;100.00
37634;BME280;32048;49.902;22.508;2023-03-12T02:20:02;97897.03;;;-1.72;100.00
37634;BME280;32048;49.902;22.508;2023-03-12T02:22:35;97908.22;;;-1.70;100.00
37634;BME280;32048;49.902;22.508;2023-03-12T02:27:58;97906.47;;;-1.69;100.00
37634;BME280;32048;49.902;22.508;2023-03-12T02:30:29;97916.81;;;-1.68;100.00
37634;BME280;32048;49.902;22.508;2023-03-12T02:32:58;97911.63;;;-1.68;100.00
37634;BME280;32048;49.902;22.508;2023-03-12T02:35:27;97922.94;;;-1.73;100.00
37634;BME280;32048;49.902;22.508;2023-03-12T02:37:55;97930.75;;;-1.76;100.00
37634;BME280;32048;49.902;22.508;2023-03-12T02:40:28;97920.56;;;-1.85;100.00
37634;BME280;32048;49.902;22.508;2023-03-12T02:42:57;97933.50;;;-1.85;100.00
37634;BME280;32048;49.902;22.508;2023-03-12T02:45:25;97932.63;;;-1.86;100.00
37634;BME280;32048;49.902;22.508;2023-03-12T02:47:52;97933.44;;;-1.84;100.00
37634;BME280;32048;49.902;22.508;2023-03-12T02:50:19;97928.28;;;-1.84;100.00
37634;BME280;32048;49.902;22.508;2023-03-12T02:52:47;97942.13;;;-1.86;100.00
37634;BME280;32048;49.902;22.508;2023-03-12T02:55:14;97943.06;;;-1.92;100.00
37634;BME280;32048;49.902;22.508;2023-03-12T02:57:41;97938.84;;;-1.98;100.00
37634;BME280;32048;49.902;22.508;2023-03-12T03:00:13;97932.88;;;-2.01;100.00
37634;BME280;32048;49.902;22.508;2023-03-12T03:02:41;97946.72;;;-2.05;100.00
37634;BME280;32048;49.902;22.508;2023-03-12T03:05:10;97961.41;;;-2.07;100.00
37634;BME280;32048;49.902;22.508;2023-03-12T03:07:37;97958.94;;;-2.17;100.00
37634;BME280;32048;49.902;22.508;2023-03-12T03:10:05;97969.38;;;-2.21;100.00
37634;BME280;32048;49.902;22.508;2023-03-12T03:12:34;97969.44;;;-2.26;100.00
37634;BME280;32048;49.902;22.508;2023-03-12T03:15:02;97980.69;;;-2.32;100.00
37634;BME280;32048;49.902;22.508;2023-03-12T03:17:30;97985.06;;;-2.37;100.00
37634;BME280;32048;49.902;22.508;2023-03-12T03:19:57;97989.47;;;-2.43;100.00
37634;BME280;32048;49.902;22.508;2023-03-12T03:22:24;97998.13;;;-2.49;100.00
37634;BME280;32048;49.902;22.508;2023-03-12T03:24:52;97999.03;;;-2.48;100.00
37634;BME280;32048;49.902;22.508;2023-03-12T03:27:19;98003.34;;;-2.51;100.00
37634;BME280;32048;49.902;22.508;2023-03-12T03:29:46;98003.34;;;-2.52;100.00
37634;BME280;32048;49.902;22.508;2023-03-12T03:32:13;98006.81;;;-2.53;100.00
37634;BME280;32048;49.902;22.508;2023-03-12T03:34:40;98007.69;;;-2.53;100.00
37634;BME280;32048;49.902;22.508;2023-03-12T03:37:08;98009.41;;;-2.55;100.00
37634;BME280;32048;49.902;22.508;2023-03-12T03:39:35;98014.59;;;-2.53;100.00
37634;BME280;32048;49.902;22.508;2023-03-12T03:42:02;98033.53;;;-2.53;100.00
37634;BME280;32048;49.902;22.508;2023-03-12T03:44:30;98030.09;;;-2.56;100.00
37634;BME280;32048;49.902;22.508;2023-03-12T03:46:57;98030.22;;;-2.64;100.00
37634;BME280;32048;49.902;22.508;2023-03-12T03:49:24;98036.22;;;-2.62;100.00
37634;BME280;32048;49.902;22.508;2023-03-12T03:51:51;98036.22;;;-2.63;100.00
37634;BME280;32048;49.902;22.508;2023-03-12T03:54:18;98029.38;;;-2.66;100.00
37634;BME280;32048;49.902;22.508;2023-03-12T03:56:46;98032.78;;;-2.65;100.00
37634;BME280;32048;49.902;22.508;2023-03-12T03:59:13;98024.19;;;-2.67;100.00
37634;BME280;32048;49.902;22.508;2023-03-12T04:01:40;98035.38;;;-2.64;100.00
37634;BME280;32048;49.902;22.508;2023-03-12T04:04:07;98035.38;;;-2.65;100.00
37634;BME280;32048;49.902;22.508;2023-03-12T04:06:35;98038.88;;;-2.69;100.00
37634;BME280;32048;49.902;22.508;2023-03-12T04:09:02;98038.00;;;-2.68;100.00
37634;BME280;32048;49.902;22.508;2023-03-12T04:11:30;98036.31;;;-2.73;100.00
37634;BME280;32048;49.902;22.508;2023-03-12T04:13:57;98044.97;;;-2.75;100.00
37634;BME280;32048;49.902;22.508;2023-03-12T04:16:24;98042.41;;;-2.78;100.00
37634;BME280;32048;49.902;22.508;2023-03-12T04:18:51;98046.72;;;-2.79;100.00
37634;BME280;32048;49.902;22.508;2023-03-12T04:21:19;98046.69;;;-2.76;100.00
37634;BME280;32048;49.902;22.508;2023-03-12T04:23:46;98051.00;;;-2.75;100.00
37634;BME280;32048;49.902;22.508;2023-03-12T04:26:13;98050.91;;;-2.67;100.00
37634;BME280;32048;49.902;22.508;2023-03-12T04:28:40;98039.66;;;-2.63;100.00
37634;BME280;32048;49.902;22.508;2023-03-12T04:31:09;98046.56;;;-2.65;100.00
37634;BME280;32048;49.902;22.508;2023-03-12T04:33:38;98062.97;;;-2.67;100.00
37634;BME280;32048;49.902;22.508;2023-03-12T04:36:06;98050.09;;;-2.70;100.00
37634;BME280;32048;49.902;22.508;2023-03-12T04:38:33;98048.34;;;-2.70;100.00
37634;BME280;32048;49.902;22.508;2023-03-12T04:41:04;98056.16;;;-2.75;100.00
37634;BME280;32048;49.902;22.508;2023-03-12T04:43:33;98053.63;;;-2.78;100.00
37634;BME280;32048;49.902;22.508;2023-03-12T04:46:01;98059.59;;;-2.74;100.00
37634;BME280;32048;49.902;22.508;2023-03-12T04:48:29;98069.06;;;-2.75;100.00
37634;BME280;32048;49.902;22.508;2023-03-12T04:50:56;98063.06;;;-2.75;100.00
37634;BME280;32048;49.902;22.508;2023-03-12T04:53:23;98066.50;;;-2.75;100.00
37634;BME280;32048;49.902;22.508;2023-03-12T04:55:51;98067.38;;;-2.79;100.00
37634;BME280;32048;49.902;22.508;2023-03-12T04:58:19;98068.19;;;-2.74;100.00
37634;BME280;32048;49.902;22.508;2023-03-12T05:00:48;98079.38;;;-2.70;100.00
37634;BME280;32048;49.902;22.508;2023-03-12T05:03:15;98075.84;;;-2.61;100.00
37634;BME280;32048;49.902;22.508;2023-03-12T05:05:43;98074.03;;;-2.55;100.00
37634;BME280;32048;49.902;22.508;2023-03-12T05:08:10;98085.00;;;-2.34;100.00
37634;BME280;32048;49.902;22.508;2023-03-12T05:10:38;98074.38;;;-2.10;100.00
37634;BME280;32048;49.902;22.508;2023-03-12T05:13:15;98088.00;;;-1.95;100.00
37634;BME280;32048;49.902;22.508;2023-03-12T05:15:43;98089.66;;;-1.91;100.00
37634;BME280;32048;49.902;22.508;2023-03-12T05:18:10;98102.66;;;-1.93;100.00
37634;BME280;32048;49.902;22.508;2023-03-12T05:20:38;98102.66;;;-1.96;100.00
37634;BME280;32048;49.902;22.508;2023-03-12T05:23:05;98112.16;;;-1.95;100.00
37634;BME280;32048;49.902;22.508;2023-03-12T05:25:32;98108.66;;;-1.92;100.00
37634;BME280;32048;49.902;22.508;2023-03-12T05:27:59;98112.13;;;-1.93;100.00
37634;BME280;32048;49.902;22.508;2023-03-12T05:30:26;98106.75;;;-1.78;100.00
37634;BME280;32048;49.902;22.508;2023-03-12T05:32:53;98107.31;;;-1.56;100.00
37634;BME280;32048;49.902;22.508;2023-03-12T05:35:21;98117.34;;;-1.31;100.00
37634;BME280;32048;49.902;22.508;2023-03-12T05:37:48;98107.19;;;-0.89;100.00
37634;BME280;32048;49.902;22.508;2023-03-12T05:40:16;98108.28;;;-0.53;100.00
37634;BME280;32048;49.902;22.508;2023-03-12T05:42:43;98114.59;;;-0.19;100.00
37634;BME280;32048;49.902;22.508;2023-03-12T05:45:10;98114.78;;;0.13;97.99
37634;BME280;32048;49.902;22.508;2023-03-12T05:47:37;98107.94;;;0.51;95.21
37634;BME280;32048;49.902;22.508;2023-03-12T05:50:05;98114.78;;;0.93;93.93
37634;BME280;32048;49.902;22.508;2023-03-12T05:52:32;98117.44;;;1.25;89.99
37634;BME280;32048;49.902;22.508;2023-03-12T05:54:59;98113.53;;;1.43;87.47
37634;BME280;32048;49.902;22.508;2023-03-12T05:57:26;98133.78;;;1.66;85.09
37634;BME280;32048;49.902;22.508;2023-03-12T05:59:53;98139.19;;;1.92;83.80
37634;BME280;32048;49.902;22.508;2023-03-12T06:02:20;98135.84;;;2.18;81.22
37634;BME280;32048;49.902;22.508;2023-03-12T06:04:47;98132.25;;;2.22;79.56
37634;BME280;32048;49.902;22.508;2023-03-12T06:07:14;98144.50;;;2.20;81.02
37634;BME280;32048;49.902;22.508;2023-03-12T06:09:41;98142.75;;;2.50;78.48
37634;BME280;32048;49.902;22.508;2023-03-12T06:12:08;98145.28;;;2.81;79.84
37634;BME280;32048;49.902;22.508;2023-03-12T06:14:35;98144.75;;;2.98;74.61
37634;BME280;32048;49.902;22.508;2023-03-12T06:17:02;98125.06;;;2.89;74.19
37634;BME280;32048;49.902;22.508;2023-03-12T06:19:30;98138.88;;;2.63;76.10
37634;BME280;32048;49.902;22.508;2023-03-12T06:21:57;98149.19;;;2.66;76.31
37634;BME280;32048;49.902;22.508;2023-03-12T06:24:24;98143.09;;;2.67;75.35
37634;BME280;32048;49.902;22.508;2023-03-12T06:26:51;98144.28;;;2.85;72.68
37634;BME280;32048;49.902;22.508;2023-03-12T06:29:18;98152.19;;;2.82;74.38
37634;BME280;32048;49.902;22.508;2023-03-12T06:31:45;98150.59;;;3.06;74.80
37634;BME280;32048;49.902;22.508;2023-03-12T06:34:14;98154.47;;;3.48;74.33
37634;BME280;32048;49.902;22.508;2023-03-12T06:36:42;98159.13;;;3.65;69.92
37634;BME280;32048;49.902;22.508;2023-03-12T06:39:09;98162.50;;;3.68;69.61
37634;BME280;32048;49.902;22.508;2023-03-12T06:41:36;98155.47;;;3.70;68.88
37634;BME280;32048;49.902;22.508;2023-03-12T06:44:04;98163.16;;;3.75;68.76
37634;BME280;32048;49.902;22.508;2023-03-12T06:46:32;98162.94;;;4.06;68.22
37634;BME280;32048;49.902;22.508;2023-03-12T06:48:59;98160.13;;;4.59;69.42
37634;BME280;32048;49.902;22.508;2023-03-12T06:51:26;98138.44;;;4.79;61.28
37634;BME280;32048;49.902;22.508;2023-03-12T06:53:54;98159.31;;;4.34;65.03
37634;BME280;32048;49.902;22.508;2023-03-12T06:56:20;98172.59;;;4.28;67.18
37634;BME280;32048;49.902;22.508;2023-03-12T06:58:48;98169.50;;;4.42;66.05
37634;BME280;32048;49.902;22.508;2023-03-12T07:01:15;98165.66;;;4.75;64.72
37634;BME280;32048;49.902;22.508;2023-03-12T07:03:42;98171.19;;;4.66;63.75
37634;BME280;32048;49.902;22.508;2023-03-12T07:06:20;98174.34;;;4.76;62.34
37634;BME280;32048;49.902;22.508;2023-03-12T07:08:48;98165.81;;;4.71;63.45
37634;BME280;32048;49.902;22.508;2023-03-12T07:11:15;98187.78;;;4.42;65.69
37634;BME280;32048;49.902;22.508;2023-03-12T07:13:43;98181.03;;;4.59;64.51
37634;BME280;32048;49.902;22.508;2023-03-12T07:16:11;98166.63;;;4.95;64.70
37634;BME280;32048;49.902;22.508;2023-03-12T07:18:38;98174.22;;;5.25;61.86
37634;BME280;32048;49.902;22.508;2023-03-12T07:21:05;98175.56;;;5.33;63.80
37634;BME280;32048;49.902;22.508;2023-03-12T07:23:32;98188.75;;;5.32;60.30
37634;BME280;32048;49.902;22.508;2023-03-12T07:25:59;98184.13;;;5.16;60.68
37634;BME280;32048;49.902;22.508;2023-03-12T07:28:27;98182.66;;;5.09;61.25
37634;BME280;32048;49.902;22.508;2023-03-12T07:30:59;98175.06;;;5.25;61.33
37634;BME280;32048;49.902;22.508;2023-03-12T07:33:26;98189.28;;;5.40;63.36
37634;BME280;32048;49.902;22.508;2023-03-12T07:35:54;98203.34;;;5.59;59.35
37634;BME280;32048;49.902;22.508;2023-03-12T07:38:21;98198.25;;;5.56;61.67
37634;BME280;32048;49.902;22.508;2023-03-12T07:40:52;98182.22;;;5.84;58.96
37634;BME280;32048;49.902;22.508;2023-03-12T07:43:21;98211.19;;;5.81;59.03
37634;BME280;32048;49.902;22.508;2023-03-12T07:45:48;98215.03;;;5.95;56.91
37634;BME280;32048;49.902;22.508;2023-03-12T07:48:17;98225.06;;;5.83;57.80
37634;BME280;32048;49.902;22.508;2023-03-12T07:50:46;98222.47;;;5.61;61.25
37634;BME280;32048;49.902;22.508;2023-03-12T07:53:13;98227.88;;;5.35;61.99
37634;BME280;32048;49.902;22.508;2023-03-12T07:55:42;98225.91;;;4.72;63.86
37634;BME280;32048;49.902;22.508;2023-03-12T07:58:10;98226.44;;;4.33;67.31
37634;BME280;32048;49.902;22.508;2023-03-12T08:00:38;98211.13;;;3.98;68.16
37634;BME280;32048;49.902;22.508;2023-03-12T08:03:06;98225.41;;;3.61;71.77
37634;BME280;32048;49.902;22.508;2023-03-12T08:05:33;98223.13;;;3.23;73.08
37634;BME280;32048;49.902;22.508;2023-03-12T08:08:00;98225.00;;;3.18;73.16
37634;BME280;32048;49.902;22.508;2023-03-12T08:10:27;98229.16;;;2.96;75.23
37634;BME280;32048;49.902;22.508;2023-03-12T08:12:55;98233.28;;;2.73;78.31
37634;BME280;32048;49.902;22.508;2023-03-12T08:15:22;98229.41;;;2.88;79.28
37634;BME280;32048;49.902;22.508;2023-03-12T08:17:49;98215.41;;;3.47;77.63
37634;BME280;32048;49.902;22.508;2023-03-12T08:20:16;98216.88;;;4.32;71.44
37634;BME280;32048;49.902;22.508;2023-03-12T08:22:44;98198.88;;;4.95;67.19
37634;BME280;32048;49.902;22.508;2023-03-12T08:25:11;98196.72;;;5.29;65.52
37634;BME280;32048;49.902;22.508;2023-03-12T08:27:38;98216.06;;;5.47;67.98
37634;BME280;32048;49.902;22.508;2023-03-12T08:30:05;98202.66;;;6.19;63.29
37634;BME280;32048;49.902;22.508;2023-03-12T08:32:33;98204.44;;;6.58;59.76
37634;BME280;32048;49.902;22.508;2023-03-12T08:35:00;98213.25;;;6.95;60.92
37634;BME280;32048;49.902;22.508;2023-03-12T08:37:27;98199.19;;;7.34;55.53
37634;BME280;32048;49.902;22.508;2023-03-12T08:39:54;98213.56;;;6.89;56.93
37634;BME280;32048;49.902;22.508;2023-03-12T08:42:21;98211.09;;;6.65;58.47
37634;BME280;32048;49.902;22.508;2023-03-12T08:44:48;98216.41;;;6.63;59.19
37634;BME280;32048;49.902;22.508;2023-03-12T08:47:15;98209.56;;;6.99;59.83
37634;BME280;32048;49.902;22.508;2023-03-12T08:49:42;98182.72;;;7.30;57.41
37634;BME280;32048;49.902;22.508;2023-03-12T08:52:10;98204.06;;;7.41;57.47
37634;BME280;32048;49.902;22.508;2023-03-12T08:54:37;98217.13;;;7.43;55.80
37634;BME280;32048;49.902;22.508;2023-03-12T08:57:04;98214.50;;;7.24;57.00
37634;BME280;32048;49.902;22.508;2023-03-12T08:59:31;98213.69;;;7.04;57.20
37634;BME280;32048;49.902;22.508;2023-03-12T09:01:58;98223.13;;;6.90;58.93
37634;BME280;32048;49.902;22.508;2023-03-12T09:04:25;98216.66;;;7.16;58.56
37634;BME280;32048;49.902;22.508;2023-03-12T09:06:52;98197.81;;;7.44;55.82
37634;BME280;32048;49.902;22.508;2023-03-12T09:09:19;98208.75;;;7.54;54.39
37634;BME280;32048;49.902;22.508;2023-03-12T09:11:46;98221.72;;;7.57;57.96
37634;BME280;32048;49.902;22.508;2023-03-12T09:14:13;98231.34;;;7.75;56.31
37634;BME280;32048;49.902;22.508;2023-03-12T09:17:00;98220.16;;;8.06;54.77
37634;BME280;32048;49.902;22.508;2023-03-12T09:19:28;98217.59;;;8.05;54.18
37634;BME280;32048;49.902;22.508;2023-03-12T09:21:55;98229.09;;;7.67;56.26
37634;BME280;32048;49.902;22.508;2023-03-12T09:24:23;98224.63;;;8.22;53.09
37634;BME280;32048;49.902;22.508;2023-03-12T09:26:51;98236.84;;;8.58;52.43
37634;BME280;32048;49.902;22.508;2023-03-12T09:29:17;98228.84;;;8.43;53.57
37634;BME280;32048;49.902;22.508;2023-03-12T09:31:45;98231.78;;;9.04;51.35
37634;BME280;32048;49.902;22.508;2023-03-12T09:34:11;98225.38;;;8.92;49.62
37634;BME280;32048;49.902;22.508;2023-03-12T09:36:39;98222.63;;;9.11;53.34
37634;BME280;32048;49.902;22.508;2023-03-12T09:39:06;98218.63;;;9.20;47.15
37634;BME280;32048;49.902;22.508;2023-03-12T09:41:35;98227.97;;;9.09;47.59
37634;BME280;32048;49.902;22.508;2023-03-12T09:44:25;98234.06;;;8.61;50.55
37634;BME280;32048;49.902;22.508;2023-03-12T09:47:03;98231.91;;;8.17;50.24
37634;BME280;32048;49.902;22.508;2023-03-12T09:49:41;98240.28;;;8.07;51.63
37634;BME280;32048;49.902;22.508;2023-03-12T09:52:28;98242.91;;;8.42;49.95
37634;BME280;32048;49.902;22.508;2023-03-12T09:57:29;98233.13;;;8.62;50.82
37634;BME280;32048;49.902;22.508;2023-03-12T09:59:56;98233.78;;;8.83;50.49
37634;BME280;32048;49.902;22.508;2023-03-12T10:05:08;98232.91;;;8.49;46.58
37634;BME280;32048;49.902;22.508;2023-03-12T10:07:44;98233.38;;;8.57;51.66
37634;BME280;32048;49.902;22.508;2023-03-12T10:10:22;98236.25;;;8.52;50.17
37634;BME280;32048;49.902;22.508;2023-03-12T10:13:30;98243.16;;;8.88;44.98
37634;BME280;32048;49.902;22.508;2023-03-12T10:16:18;98240.19;;;8.61;47.66
37634;BME280;32048;49.902;22.508;2023-03-12T10:26:54;98237.16;;;7.45;49.41
37634;BME280;32048;49.902;22.508;2023-03-12T10:29:25;98235.66;;;7.40;50.74
37634;BME280;32048;49.902;22.508;2023-03-12T10:34:40;98238.78;;;7.48;50.82
37634;BME280;32048;49.902;22.508;2023-03-12T10:37:27;98225.28;;;7.56;50.46
37634;BME280;32048;49.902;22.508;2023-03-12T10:39:56;98221.88;;;7.54;50.47
37634;BME280;32048;49.902;22.508;2023-03-12T10:42:28;98228.56;;;7.78;50.95
37634;BME280;32048;49.902;22.508;2023-03-12T10:45:15;98230.59;;;7.90;50.08
37634;BME280;32048;49.902;22.508;2023-03-12T10:47:51;98226.72;;;7.44;50.25
37634;BME280;32048;49.902;22.508;2023-03-12T10:50:25;98234.16;;;7.53;52.34
37634;BME280;32048;49.902;22.508;2023-03-12T10:55:40;98235.88;;;9.25;47.44
37634;BME280;32048;49.902;22.508;2023-03-12T10:58:21;98217.84;;;10.11;42.19
37634;BME280;32048;49.902;22.508;2023-03-12T11:00:59;98232.91;;;10.09;44.34
37634;BME280;32048;49.902;22.508;2023-03-12T11:03:27;98226.38;;;10.31;41.57
37634;BME280;32048;49.902;22.508;2023-03-12T11:05:59;98239.91;;;9.94;41.95
37634;BME280;32048;49.902;22.508;2023-03-12T11:08:31;98237.97;;;9.82;46.63
37634;BME280;32048;49.902;22.508;2023-03-12T11:11:00;98233.59;;;10.57;44.17
37634;BME280;32048;49.902;22.508;2023-03-12T11:19:00;98237.19;;;8.34;44.23
37634;BME280;32048;49.902;22.508;2023-03-12T11:21:32;98243.28;;;8.00;44.65
37634;BME280;32048;49.902;22.508;2023-03-12T11:24:08;98236.94;;;7.50;45.55
37634;BME280;32048;49.902;22.508;2023-03-12T11:31:54;98262.34;;;6.53;51.05
37634;BME280;32048;49.902;22.508;2023-03-12T11:34:29;98246.25;;;7.38;50.26
37634;BME280;32048;49.902;22.508;2023-03-12T11:42:09;98243.78;;;9.57;44.44
37634;BME280;32048;49.902;22.508;2023-03-12T11:53:37;98260.44;;;10.50;40.04
37634;BME280;32048;49.902;22.508;2023-03-12T12:13:22;98268.63;;;7.47;47.30
37634;BME280;32048;49.902;22.508;2023-03-12T12:16:30;98254.56;;;7.29;47.55
37634;BME280;32048;49.902;22.508;2023-03-12T12:27:23;98255.56;;;7.99;45.17
37634;BME280;32048;49.902;22.508;2023-03-12T12:30:08;98258.75;;;8.06;45.59
37634;BME280;32048;49.902;22.508;2023-03-12T12:35:26;98259.91;;;8.70;43.30
37634;BME280;32048;49.902;22.508;2023-03-12T12:40:52;98265.09;;;8.71;43.34
37634;BME280;32048;49.902;22.508;2023-03-12T12:43:36;98284.84;;;8.96;45.85
37634;BME280;32048;49.902;22.508;2023-03-12T12:46:07;98268.31;;;9.10;43.77
37634;BME280;32048;49.902;22.508;2023-03-12T12:48:55;98293.69;;;9.28;43.28
37634;BME280;32048;49.902;22.508;2023-03-12T12:51:26;98287.47;;;9.29;41.58
37634;BME280;32048;49.902;22.508;2023-03-12T12:57:06;98279.38;;;9.32;43.90
37634;BME280;32048;49.902;22.508;2023-03-12T13:02:19;98291.31;;;9.24;42.62
37634;BME280;32048;49.902;22.508;2023-03-12T13:04:48;98302.31;;;9.30;43.49
37634;BME280;32048;49.902;22.508;2023-03-12T13:09:51;98307.31;;;9.19;42.17
37634;BME280;32048;49.902;22.508;2023-03-12T13:12:51;98301.91;;;8.89;42.52
37634;BME280;32048;49.902;22.508;2023-03-12T13:20:25;98301.88;;;9.55;41.65
37634;BME280;32048;49.902;22.508;2023-03-12T13:26:07;98293.69;;;9.76;40.66
37634;BME280;32048;49.902;22.508;2023-03-12T13:31:33;98303.56;;;8.74;44.55
37634;BME280;32048;49.902;22.508;2023-03-12T13:36:45;98306.84;;;8.62;43.62
37634;BME280;32048;49.902;22.508;2023-03-12T13:41:52;98314.81;;;8.06;47.62
37634;BME280;32048;49.902;22.508;2023-03-12T13:49:56;98315.22;;;8.16;46.28
37634;BME280;32048;49.902;22.508;2023-03-12T13:52:26;98314.22;;;8.19;44.21
37634;BME280;32048;49.902;22.508;2023-03-12T13:55:00;98322.59;;;7.90;44.10
37634;BME280;32048;49.902;22.508;2023-03-12T14:05:49;98321.00;;;6.92;45.45
37634;BME280;32048;49.902;22.508;2023-03-12T14:16:53;98330.13;;;6.21;49.37
37634;BME280;32048;49.902;22.508;2023-03-12T14:19:25;98326.81;;;6.16;49.13
37634;BME280;32048;49.902;22.508;2023-03-12T14:21:53;98329.72;;;6.10;50.37
37634;BME280;32048;49.902;22.508;2023-03-12T14:24:32;98330.81;;;6.04;49.85
37634;BME280;32048;49.902;22.508;2023-03-12T14:27:01;98332.94;;;5.95;50.48
37634;BME280;32048;49.902;22.508;2023-03-12T14:29:36;98342.75;;;5.90;52.32
37634;BME280;32048;49.902;22.508;2023-03-12T14:32:13;98341.75;;;5.92;50.58
37634;BME280;32048;49.902;22.508;2023-03-12T14:37:46;98336.50;;;5.70;48.70
37634;BME280;32048;49.902;22.508;2023-03-12T14:40:40;98332.25;;;5.68;51.49
37634;BME280;32048;49.902;22.508;2023-03-12T14:43:27;98343.84;;;5.60;49.89
37634;BME280;32048;49.902;22.508;2023-03-12T14:45:57;98331.06;;;5.53;50.41
37634;BME280;32048;49.902;22.508;2023-03-12T14:48:33;98341.59;;;5.51;50.89
37634;BME280;32048;49.902;22.508;2023-03-12T14:51:03;98345.13;;;5.50;49.76
37634;BME280;32048;49.902;22.508;2023-03-12T14:53:33;98339.22;;;5.45;50.63
37634;BME280;32048;49.902;22.508;2023-03-12T14:56:09;98347.09;;;5.45;51.53
37634;BME280;32048;49.902;22.508;2023-03-12T14:58:43;98356.75;;;5.43;51.79
37634;BME280;32048;49.902;22.508;2023-03-12T15:01:15;98351.56;;;5.41;52.43
37634;BME280;32048;49.902;22.508;2023-03-12T15:03:47;98347.75;;;5.27;51.39
37634;BME280;32048;49.902;22.508;2023-03-12T15:06:26;98362.91;;;5.18;52.73
37634;BME280;32048;49.902;22.508;2023-03-12T15:08:55;98354.25;;;5.16;54.23
37634;BME280;32048;49.902;22.508;2023-03-12T15:11:26;98356.91;;;5.15;52.07
37634;BME280;32048;49.902;22.508;2023-03-12T15:13:55;98351.81;;;5.12;51.39